Decatur Airport
KDEC : rendu visible

Aérodrome :











RETROUVEZ-NOUS SUR...

 
LOGIN :

S'inscrire | Disclaimer

   EN    FR    IT 

 









Légende :    VFR   VFR Marginal   IFR   IFR Intensif   IFR Très Intensif
Visi : 
Plafond : 
>= 8 km
>= 3000ft
5 à 8 km
1000 à 3000 ft
1500m à 5 km
500 à 1000 ft
800 à 1500m
200 à 500 ft
< 800m
< 200 ft
Symboles :   Orages  Brouillard  Fortes neiges  Fortes précipitations  Vent > 20 kt






- Altitude de l'aérodrome : 682 ft
- Code IATA : DEC


KDEC - Decatur

DERNIER METAR :
  • 300254Z 33010KT 10SM CLR 18/09 A3013 RMK AO2 SLP198 T01780089 51027

METARs EXPIRÉS :
  • 300154Z 32008KT 10SM CLR 19/09 A3010 RMK AO2 SLP188 T01890094
  • 300054Z 31011KT 10SM CLR 21/09 A3008 RMK AO2 SLP181 T02110089

TAF KDEC
Valide du 30 à 00h jusqu'au 31 à 00h UTC


292329Z 3000/3024 33014G22KT P6SM SCT060
FM300100 32006KT P6SM FEW050
FM301500 34009KT P6SM SCT050 BKN200
FIR KZKC / Amérique du Nord



MET'MAP, la Météo Aéronautique d'un coup d'oeil ! - Copyright ORBIFLY Décembre 2007 - Disclaimer

ORBIFLY MET'MAP TEAM :

Programmation & Développement : Alexandra Zaïnal
Sur une idée originale de : Baudouin d'Aumeries
Assistance à la programmation : Marc-Olivier Méhu
Soutien technique & logistique : Manuel Goepfert

Contact : metmap@orbifly.com




SOURCES & CREDITS :

   NOAA       Earth
Advisory